Time;durP1;ratioP1;P1;durP2;ratioP2;P2;SDS_P1;SDS_P2;PMS_P1;PMS_P2;Temp;Humidity;BMP_temperature;BMP_pressure;BME280_temperature;BME280_humidity;BME280_pressure;Samples;Min_cycle;Max_cycle;Signal;HPM_P1;HPM_P2
2022/12/02 00:00:23;;;;;;;;;;;1.10;99.90;;;;;;6273694;22;19903;-88
2022/12/02 00:02:49;;;;;;;;;;;0.40;99.90;;;;;;6273691;22;19903;-87
2022/12/02 00:05:15;;;;;;;;;;;0.80;99.90;;;;;;6273624;22;19903;-89
2022/12/02 00:07:42;;;;;;;;;;;0.30;99.90;;;;;;6273448;22;20328;-86
2022/12/02 00:10:24;;;;;;;;;;;0.60;99.90;;;;;;6274629;22;19970;-87
2022/12/02 00:12:50;;;;;;;;;;;0.70;99.90;;;;;;6273457;22;19990;-88
2022/12/02 00:15:45;;;;;;;;;;;0.70;99.90;;;;;;6273569;22;19957;-86
2022/12/02 00:18:11;;;;;;;;;;;0.90;99.90;;;;;;6241088;22;19904;-82
2022/12/02 00:20:37;;;;;;;;;;;0.70;99.90;;;;;;6274518;22;19972;-87
2022/12/02 00:23:03;;;;;;;;;;;0.60;99.90;;;;;;6273464;22;20328;-86
2022/12/02 00:25:29;;;;;;;;;;;0.00;99.90;;;;;;6246309;22;20332;-87
2022/12/02 00:27:55;;;;;;;;;;;0.40;99.90;;;;;;6246314;22;19982;-87
2022/12/02 00:30:20;;;;;;;;;;;0.20;99.90;;;;;;6273244;22;19930;-87
2022/12/02 00:32:46;;;;;;;;;;;0.50;99.90;;;;;;6273166;22;19911;-87
2022/12/02 00:35:11;;;;;;;;;;;0.60;99.90;;;;;;6273519;22;19949;-82
2022/12/02 00:37:37;;;;;;;;;;;0.50;99.90;;;;;;6274621;22;19903;-85
2022/12/02 00:40:03;;;;;;;;;;;0.50;99.90;;;;;;6273326;22;19908;-86
2022/12/02 00:42:28;;;;;;;;;;;0.50;99.90;;;;;;6273175;22;19904;-87
2022/12/02 00:47:38;;;;;;;;;;;-0.20;99.90;;;;;;6274160;22;19957;-87
2022/12/02 00:50:03;;;;;;;;;;;2.10;99.90;;;;;;6273160;22;19994;-86
2022/12/02 00:52:29;;;;;;;;;;;0.60;99.90;;;;;;6273041;22;19903;-87
2022/12/02 00:54:54;;;;;;;;;;;0.50;99.90;;;;;;6273063;22;19904;-87
2022/12/02 00:57:20;;;;;;;;;;;0.70;99.90;;;;;;6273100;22;19903;-87
2022/12/02 00:59:45;;;;;;;;;;;0.60;99.90;;;;;;6272994;22;19957;-88
2022/12/02 01:02:11;;;;;;;;;;;0.70;99.90;;;;;;6274253;22;19903;-88
2022/12/02 01:04:36;;;;;;;;;;;0.30;99.90;;;;;;6273091;22;19903;-87
2022/12/02 01:07:02;;;;;;;;;;;0.30;99.90;;;;;;6273000;22;20045;-88
2022/12/02 01:09:27;;;;;;;;;;;0.40;99.90;;;;;;6272941;22;19909;-87
2022/12/02 01:11:53;;;;;;;;;;;0.10;99.90;;;;;;6272832;22;20332;-87
2022/12/02 01:14:19;;;;;;;;;;;0.80;99.90;;;;;;6245637;22;19990;-87
2022/12/02 01:16:45;;;;;;;;;;;0.90;99.90;;;;;;6245947;22;19926;-86
2022/12/02 01:19:10;;;;;;;;;;;1.00;99.90;;;;;;6246957;22;20307;-87
2022/12/02 01:21:36;;;;;;;;;;;1.00;99.90;;;;;;6272928;22;19945;-87
2022/12/02 01:24:01;;;;;;;;;;;1.20;99.90;;;;;;6272701;22;19926;-85
2022/12/02 01:26:27;;;;;;;;;;;3.10;99.90;;;;;;6272775;22;19992;-86
2022/12/02 01:28:52;;;;;;;;;;;1.10;99.90;;;;;;6272554;22;19989;-87
2022/12/02 01:31:18;;;;;;;;;;;1.40;99.90;;;;;;6272857;22;19919;-87
2022/12/02 01:33:43;;;;;;;;;;;0.60;99.90;;;;;;6273825;22;19903;-88
2022/12/02 01:36:09;;;;;;;;;;;1.30;99.90;;;;;;6245665;22;19911;-88
2022/12/02 01:38:34;;;;;;;;;;;1.40;99.90;;;;;;6273069;22;20232;-85
2022/12/02 01:41:00;;;;;;;;;;;3.30;99.90;;;;;;6272611;22;20272;-88
2022/12/02 01:43:26;;;;;;;;;;;1.40;99.90;;;;;;6272507;22;19907;-87
2022/12/02 01:45:51;;;;;;;;;;;1.40;99.90;;;;;;6272879;22;19903;-86
2022/12/02 01:48:18;;;;;;;;;;;1.10;99.90;;;;;;6272762;22;19903;-87
2022/12/02 01:50:45;;;;;;;;;;;1.20;99.90;;;;;;6273495;22;19911;-87
2022/12/02 01:53:11;;;;;;;;;;;1.30;99.90;;;;;;6273448;22;19974;-87
2022/12/02 01:55:36;;;;;;;;;;;1.40;99.90;;;;;;6272392;22;19938;-87
2022/12/02 01:58:02;;;;;;;;;;;1.70;99.90;;;;;;6272367;22;19903;-85
2022/12/02 02:00:28;;;;;;;;;;;1.70;99.90;;;;;;6245400;22;19903;-85
2022/12/02 02:02:53;;;;;;;;;;;1.70;99.90;;;;;;6272580;22;19982;-87
2022/12/02 02:05:26;;;;;;;;;;;1.00;99.90;;;;;;6272635;22;19903;-87
2022/12/02 02:07:53;;;;;;;;;;;1.80;99.90;;;;;;6272237;22;19950;-86
2022/12/02 02:10:20;;;;;;;;;;;1.30;99.90;;;;;;6244995;22;19907;-88
2022/12/02 02:12:46;;;;;;;;;;;1.80;99.90;;;;;;6273212;22;19907;-88
2022/12/02 02:15:13;;;;;;;;;;;1.70;99.90;;;;;;6273523;22;19904;-86
2022/12/02 02:17:39;;;;;;;;;;;1.30;99.90;;;;;;6272338;22;19986;-88
2022/12/02 02:20:05;;;;;;;;;;;3.30;99.90;;;;;;6272312;22;19989;-86
2022/12/02 02:22:37;;;;;;;;;;;1.80;99.90;;;;;;6272181;22;19904;-86
2022/12/02 02:25:04;;;;;;;;;;;2.40;99.90;;;;;;6272177;22;19904;-82
2022/12/02 02:27:29;;;;;;;;;;;1.80;99.90;;;;;;6272253;22;19973;-87
2022/12/02 02:29:55;;;;;;;;;;;1.60;99.90;;;;;;6272207;22;20235;-83
2022/12/02 02:32:20;;;;;;;;;;;1.70;99.90;;;;;;6272309;22;19907;-85
2022/12/02 02:34:46;;;;;;;;;;;1.80;99.90;;;;;;6273186;22;19903;-85
2022/12/02 02:37:11;;;;;;;;;;;1.10;99.90;;;;;;6272033;22;19903;-86
2022/12/02 02:39:37;;;;;;;;;;;1.70;99.90;;;;;;6271972;22;20190;-84
2022/12/02 02:42:03;;;;;;;;;;;1.30;99.90;;;;;;6272304;22;20250;-87
2022/12/02 02:44:28;;;;;;;;;;;1.80;99.90;;;;;;6272184;22;19950;-85
2022/12/02 02:46:54;;;;;;;;;;;1.80;99.90;;;;;;6272212;22;19910;-87
2022/12/02 02:49:20;;;;;;;;;;;1.90;99.90;;;;;;6271925;22;19911;-87
2022/12/02 02:51:46;;;;;;;;;;;1.50;99.90;;;;;;6272859;22;19911;-87
2022/12/02 02:54:11;;;;;;;;;;;1.30;99.90;;;;;;6271886;22;19903;-86
2022/12/02 02:56:37;;;;;;;;;;;1.40;99.90;;;;;;6272293;22;19978;-86
2022/12/02 02:59:02;;;;;;;;;;;1.30;99.90;;;;;;6272048;22;20364;-86
2022/12/02 03:01:30;;;;;;;;;;;1.30;99.90;;;;;;6271993;22;19939;-86
2022/12/02 03:03:58;;;;;;;;;;;1.70;99.90;;;;;;6272021;22;19982;-87
2022/12/02 03:06:25;;;;;;;;;;;1.60;99.90;;;;;;6271607;22;19915;-87
2022/12/02 03:08:51;;;;;;;;;;;1.90;99.90;;;;;;6271704;22;20327;-86
2022/12/02 03:11:17;;;;;;;;;;;1.90;99.90;;;;;;6273014;22;19917;-88
2022/12/02 03:13:43;;;;;;;;;;;1.50;99.90;;;;;;6271880;22;19982;-85
2022/12/02 03:16:11;;;;;;;;;;;2.00;99.90;;;;;;6271954;22;20502;-86
2022/12/02 03:18:37;;;;;;;;;;;1.50;99.90;;;;;;6271783;22;20252;-87
2022/12/02 03:21:02;;;;;;;;;;;3.10;99.90;;;;;;6271746;22;19907;-85
2022/12/02 03:23:29;;;;;;;;;;;1.90;99.90;;;;;;6271629;22;19903;-88
2022/12/02 03:25:55;;;;;;;;;;;1.90;99.90;;;;;;6271873;22;19938;-88
2022/12/02 03:28:21;;;;;;;;;;;3.00;99.90;;;;;;6271925;22;19910;-87
2022/12/02 03:30:46;;;;;;;;;;;1.20;99.90;;;;;;6245644;22;19962;-90
2022/12/02 03:33:12;;;;;;;;;;;3.30;99.90;;;;;;6271804;22;19931;-88
2022/12/02 03:35:37;;;;;;;;;;;2.40;99.90;;;;;;6271698;22;19911;-87
2022/12/02 03:38:03;;;;;;;;;;;3.60;99.90;;;;;;6271638;22;19915;-88
2022/12/02 03:40:28;;;;;;;;;;;1.90;99.90;;;;;;6271794;22;19903;-89
2022/12/02 03:42:54;;;;;;;;;;;4.00;99.90;;;;;;6244534;22;19986;-87
2022/12/02 03:45:20;;;;;;;;;;;2.00;99.90;;;;;;6272815;22;19918;-89
2022/12/02 03:47:45;;;;;;;;;;;3.80;99.90;;;;;;6271622;22;20380;-88
2022/12/02 03:50:11;;;;;;;;;;;1.90;99.90;;;;;;6271612;22;20158;-89
2022/12/02 03:52:37;;;;;;;;;;;2.00;99.90;;;;;;6271516;22;19908;-87
2022/12/02 03:55:03;;;;;;;;;;;1.60;99.90;;;;;;6271856;22;19903;-86
2022/12/02 03:57:31;;;;;;;;;;;2.00;99.90;;;;;;6271805;22;20346;-89
2022/12/02 03:59:56;;;;;;;;;;;1.90;99.90;;;;;;6272008;22;19911;-87
2022/12/02 04:02:22;;;;;;;;;;;2.00;99.90;;;;;;6245212;22;19903;-83
2022/12/02 04:04:47;;;;;;;;;;;2.00;99.90;;;;;;6272588;22;19903;-89
2022/12/02 04:07:13;;;;;;;;;;;1.80;99.90;;;;;;6244503;22;19921;-89
2022/12/02 04:09:38;;;;;;;;;;;1.60;99.90;;;;;;6271789;22;20351;-90
2022/12/02 04:12:04;;;;;;;;;;;2.00;99.90;;;;;;6271480;22;19912;-89
2022/12/02 04:14:29;;;;;;;;;;;2.00;99.90;;;;;;6271831;22;19903;-87
2022/12/02 04:16:55;;;;;;;;;;;1.90;99.90;;;;;;6271571;22;19904;-89
2022/12/02 04:19:20;;;;;;;;;;;1.80;99.90;;;;;;6273855;22;19903;-87
2022/12/02 04:21:46;;;;;;;;;;;2.00;99.90;;;;;;6273349;22;19985;-88
2022/12/02 04:24:11;;;;;;;;;;;1.60;99.90;;;;;;6246506;22;20279;-89
2022/12/02 04:26:37;;;;;;;;;;;1.90;99.90;;;;;;6273503;22;19915;-89
2022/12/02 04:29:02;;;;;;;;;;;1.50;99.90;;;;;;6273402;22;19915;-90
2022/12/02 04:31:28;;;;;;;;;;;2.00;99.90;;;;;;6246104;22;19918;-87
2022/12/02 04:33:54;;;;;;;;;;;2.00;99.90;;;;;;6274445;22;19908;-89
2022/12/02 04:36:19;;;;;;;;;;;2.10;99.90;;;;;;6274547;22;19904;-88
2022/12/02 04:38:45;;;;;;;;;;;;;;;;;;6273729;22;19934;-89
2022/12/02 04:41:11;;;;;;;;;;;2.00;99.90;;;;;;6273301;22;19929;-87
2022/12/02 04:43:36;;;;;;;;;;;2.00;99.90;;;;;;6246175;22;19912;-90
2022/12/02 04:46:02;;;;;;;;;;;2.20;99.90;;;;;;6245954;22;20240;-89
2022/12/02 04:48:27;;;;;;;;;;;2.30;99.90;;;;;;6273124;22;19941;-91
2022/12/02 04:50:53;;;;;;;;;;;2.00;99.90;;;;;;6246810;22;19972;-90
2022/12/02 04:53:18;;;;;;;;;;;2.30;99.90;;;;;;6273085;22;19913;-90
2022/12/02 04:55:45;;;;;;;;;;;2.30;99.90;;;;;;6246145;22;19910;-91
2022/12/02 04:58:11;;;;;;;;;;;2.20;99.90;;;;;;6273055;22;19903;-90
2022/12/02 05:00:36;;;;;;;;;;;2.20;99.90;;;;;;6245895;22;19933;-91
2022/12/02 05:03:02;;;;;;;;;;;2.30;99.90;;;;;;6245970;22;19903;-93
2022/12/02 05:05:27;;;;;;;;;;;2.30;99.90;;;;;;6272827;22;19903;-89
2022/12/02 05:07:53;;;;;;;;;;;2.20;99.90;;;;;;6274223;22;19926;-92
2022/12/02 05:10:18;;;;;;;;;;;2.20;99.90;;;;;;6273005;22;19907;-91
2022/12/02 05:12:44;;;;;;;;;;;2.20;99.90;;;;;;6272913;22;19949;-88
2022/12/02 05:15:09;;;;;;;;;;;2.30;99.90;;;;;;6245709;22;19926;-90
2022/12/02 05:17:35;;;;;;;;;;;2.10;99.90;;;;;;6272706;22;19986;-91
2022/12/02 05:20:00;;;;;;;;;;;2.00;99.90;;;;;;6272637;22;19935;-89
2022/12/02 05:22:26;;;;;;;;;;;1.90;99.90;;;;;;6273773;22;20532;-90
2022/12/02 05:24:52;;;;;;;;;;;1.80;99.90;;;;;;6245848;22;19910;-90
2022/12/02 05:27:17;;;;;;;;;;;1.70;99.90;;;;;;6264586;22;19907;-88
2022/12/02 05:29:43;;;;;;;;;;;1.60;99.90;;;;;;6270837;22;19934;-90
2022/12/02 05:32:08;;;;;;;;;;;1.60;99.90;;;;;;6270762;22;19994;-91
2022/12/02 05:34:34;;;;;;;;;;;1.50;99.90;;;;;;6271826;22;19907;-91
2022/12/02 05:36:59;;;;;;;;;;;1.60;99.90;;;;;;6272455;22;19904;-90
2022/12/02 05:39:25;;;;;;;;;;;1.50;99.90;;;;;;6273358;22;20034;-89
2022/12/02 05:41:51;;;;;;;;;;;1.50;99.90;;;;;;6271431;22;20225;-89
2022/12/02 05:44:18;;;;;;;;;;;0.90;99.90;;;;;;6272256;22;19903;-89
2022/12/02 05:46:44;;;;;;;;;;;0.90;99.90;;;;;;6272201;22;19907;-89
2022/12/02 05:49:14;;;;;;;;;;;0.80;99.90;;;;;;6271527;22;19986;-88
2022/12/02 05:51:40;;;;;;;;;;;1.20;99.90;;;;;;6272931;22;19912;-89
2022/12/02 05:54:07;;;;;;;;;;;4.30;99.90;;;;;;6272266;22;19904;-90
2022/12/02 05:56:34;;;;;;;;;;;1.00;99.90;;;;;;6244969;22;19955;-89
2022/12/02 05:59:06;;;;;;;;;;;1.10;99.90;;;;;;6272209;22;19903;-89
2022/12/02 06:01:36;;;;;;;;;;;1.00;99.90;;;;;;6270562;22;19903;-88
2022/12/02 06:04:03;;;;;;;;;;;1.00;99.90;;;;;;6272209;22;19903;-91
2022/12/02 06:06:31;;;;;;;;;;;1.00;99.90;;;;;;6245950;22;19911;-89
2022/12/02 06:08:56;;;;;;;;;;;1.00;99.90;;;;;;6245090;22;19931;-86
2022/12/02 06:11:33;;;;;;;;;;;0.50;99.90;;;;;;6244093;22;19918;-87
2022/12/02 06:14:05;;;;;;;;;;;1.10;99.90;;;;;;6275011;22;19911;-85
2022/12/02 06:16:30;;;;;;;;;;;1.50;99.90;;;;;;6271962;22;19910;-86
2022/12/02 06:18:58;;;;;;;;;;;0.50;99.90;;;;;;6273331;22;19903;-89
2022/12/02 06:21:24;;;;;;;;;;;0.60;99.90;;;;;;6272567;22;19987;-89
2022/12/02 06:23:51;;;;;;;;;;;0.90;99.90;;;;;;6275012;22;20150;-89
2022/12/02 06:26:17;;;;;;;;;;;3.60;99.90;;;;;;6272165;22;19903;-89
2022/12/02 06:28:44;;;;;;;;;;;0.70;99.90;;;;;;6244684;22;19903;-89
2022/12/02 06:31:19;;;;;;;;;;;0.70;99.90;;;;;;6271652;22;20220;-88
2022/12/02 06:33:45;;;;;;;;;;;0.80;99.90;;;;;;6271783;22;19907;-89
2022/12/02 06:36:14;;;;;;;;;;;0.70;99.90;;;;;;6271653;22;19927;-87
2022/12/02 06:39:00;;;;;;;;;;;0.60;99.90;;;;;;6271938;22;19986;-88
2022/12/02 06:41:26;;;;;;;;;;;0.50;99.90;;;;;;6270071;22;20286;-87
2022/12/02 06:46:41;;;;;;;;;;;0.60;99.90;;;;;;6271452;22;19910;-87
2022/12/02 06:49:18;;;;;;;;;;;0.50;99.90;;;;;;6271887;22;19938;-85
2022/12/02 06:51:44;;;;;;;;;;;0.60;99.90;;;;;;6271703;22;19968;-86
2022/12/02 06:54:19;;;;;;;;;;;0.60;99.90;;;;;;6272381;22;20289;-87
2022/12/02 06:56:45;;;;;;;;;;;0.70;99.90;;;;;;6272164;22;19934;-89
2022/12/02 06:59:11;;;;;;;;;;;1.10;99.90;;;;;;6272141;22;19903;-87
2022/12/02 07:01:41;;;;;;;;;;;-0.10;99.90;;;;;;6271860;22;19950;-88
2022/12/02 07:04:07;;;;;;;;;;;0.50;99.90;;;;;;6271957;22;19904;-87
2022/12/02 07:06:34;;;;;;;;;;;0.40;99.90;;;;;;6271561;22;19957;-86
2022/12/02 07:09:02;;;;;;;;;;;0.40;99.90;;;;;;6273149;22;19903;-87
2022/12/02 07:14:19;;;;;;;;;;;-0.10;99.90;;;;;;6272045;22;20093;-88
2022/12/02 07:16:44;;;;;;;;;;;-0.20;99.90;;;;;;6271943;22;19914;-88
2022/12/02 07:19:14;;;;;;;;;;;0.30;99.90;;;;;;6246279;22;19903;-90
2022/12/02 07:21:39;;;;;;;;;;;0.30;99.90;;;;;;6273665;22;20393;-87
2022/12/02 07:24:07;;;;;;;;;;;0.30;99.90;;;;;;6247170;22;19907;-89
2022/12/02 07:26:33;;;;;;;;;;;0.70;99.90;;;;;;6273922;22;20332;-88
2022/12/02 07:28:59;;;;;;;;;;;0.70;99.90;;;;;;6272658;22;19903;-88
2022/12/02 07:31:26;;;;;;;;;;;0.40;99.90;;;;;;6271580;22;19949;-89
2022/12/02 07:33:52;;;;;;;;;;;0.60;99.90;;;;;;6272008;22;19925;-89
2022/12/02 07:36:18;;;;;;;;;;;3.50;99.90;;;;;;6271999;22;20280;-89
2022/12/02 07:38:43;;;;;;;;;;;0.20;99.90;;;;;;6271838;22;20131;-85
2022/12/02 07:41:09;;;;;;;;;;;0.00;99.90;;;;;;6271739;22;20278;-87
2022/12/02 07:43:34;;;;;;;;;;;0.60;99.90;;;;;;6271630;22;19903;-87
2022/12/02 07:46:00;;;;;;;;;;;0.60;99.90;;;;;;6273000;22;19904;-87
2022/12/02 07:48:26;;;;;;;;;;;0.20;99.90;;;;;;6271969;22;19903;-89
2022/12/02 07:50:51;;;;;;;;;;;0.70;99.90;;;;;;6271833;22;19921;-89
2022/12/02 07:53:17;;;;;;;;;;;0.50;99.90;;;;;;6272311;22;20336;-89
2022/12/02 07:55:42;;;;;;;;;;;0.60;99.90;;;;;;6246521;22;19908;-87
2022/12/02 07:58:08;;;;;;;;;;;0.50;99.90;;;;;;6273878;22;19957;-89
2022/12/02 08:00:34;;;;;;;;;;;0.70;99.90;;;;;;6247550;22;19914;-86
2022/12/02 08:03:00;;;;;;;;;;;0.40;99.90;;;;;;6274817;22;20343;-85
2022/12/02 08:05:26;;;;;;;;;;;0.40;99.90;;;;;;6273728;22;19907;-86
2022/12/02 08:07:52;;;;;;;;;;;0.50;99.90;;;;;;6274552;22;19919;-89
2022/12/02 08:10:18;;;;;;;;;;;0.40;99.90;;;;;;6273581;22;19903;-85
2022/12/02 08:12:43;;;;;;;;;;;0.70;99.90;;;;;;6273516;22;20372;-87
2022/12/02 08:15:10;;;;;;;;;;;0.70;99.90;;;;;;6273459;22;19911;-84
2022/12/02 08:17:35;;;;;;;;;;;0.80;99.90;;;;;;6274497;22;19904;-85
2022/12/02 08:20:02;;;;;;;;;;;0.80;99.90;;;;;;6274682;22;19935;-87
2022/12/02 08:22:28;;;;;;;;;;;0.80;99.90;;;;;;6273571;22;19915;-89
2022/12/02 08:24:54;;;;;;;;;;;0.80;99.90;;;;;;6246824;22;19911;-88
2022/12/02 08:27:20;;;;;;;;;;;0.90;99.90;;;;;;6273650;22;19903;-86
2022/12/02 08:29:47;;;;;;;;;;;4.10;99.90;;;;;;6273318;22;19964;-88
2022/12/02 08:32:13;;;;;;;;;;;0.80;99.90;;;;;;6246416;22;19943;-89
2022/12/02 08:34:38;;;;;;;;;;;0.90;99.90;;;;;;6273691;22;19903;-86
2022/12/02 08:37:04;;;;;;;;;;;1.80;99.90;;;;;;6274670;22;19952;-88
2022/12/02 08:39:29;;;;;;;;;;;1.60;99.90;;;;;;6273194;22;19904;-85
2022/12/02 08:41:55;;;;;;;;;;;1.10;99.90;;;;;;6273277;22;19982;-85
2022/12/02 08:44:20;;;;;;;;;;;0.90;99.90;;;;;;6273145;22;19951;-85
2022/12/02 08:46:46;;;;;;;;;;;0.90;99.90;;;;;;6273367;22;20251;-84
2022/12/02 08:49:11;;;;;;;;;;;0.90;99.90;;;;;;6273471;22;19926;-85
2022/12/02 08:51:38;;;;;;;;;;;0.90;99.90;;;;;;6274203;22;19918;-90
2022/12/02 08:54:03;;;;;;;;;;;1.50;99.90;;;;;;6274517;22;19910;-85
2022/12/02 08:56:29;;;;;;;;;;;1.00;99.90;;;;;;6273127;22;19903;-85
2022/12/02 08:58:54;;;;;;;;;;;1.00;99.90;;;;;;6272957;22;19910;-86
2022/12/02 09:01:20;;;;;;;;;;;1.20;99.90;;;;;;6273255;22;19903;-85
2022/12/02 09:03:45;;;;;;;;;;;0.60;99.90;;;;;;6273311;22;19903;-85
2022/12/02 09:06:11;;;;;;;;;;;1.20;99.90;;;;;;6272721;22;20225;-89
2022/12/02 09:08:37;;;;;;;;;;;1.20;99.90;;;;;;6274291;22;19978;-85
2022/12/02 09:11:02;;;;;;;;;;;1.30;99.90;;;;;;6272959;22;19994;-85
2022/12/02 09:13:28;;;;;;;;;;;1.30;99.90;;;;;;6272795;22;19904;-86
2022/12/02 09:15:53;;;;;;;;;;;1.40;99.90;;;;;;6273710;22;20336;-87
2022/12/02 09:18:19;;;;;;;;;;;1.50;99.90;;;;;;6245902;22;19935;-87
2022/12/02 09:20:44;;;;;;;;;;;1.50;99.90;;;;;;6273087;22;19910;-88
2022/12/02 09:23:10;;;;;;;;;;;1.50;99.90;;;;;;6273034;22;20239;-85
2022/12/02 09:25:35;;;;;;;;;;;1.60;99.90;;;;;;6273965;22;19908;-85
2022/12/02 09:28:01;;;;;;;;;;;2.50;99.90;;;;;;6272834;22;20252;-89
2022/12/02 09:30:26;;;;;;;;;;;2.30;99.90;;;;;;6272964;22;19907;-89
2022/12/02 09:32:52;;;;;;;;;;;1.90;99.90;;;;;;6272990;22;19990;-88
2022/12/02 09:35:17;;;;;;;;;;;1.80;99.90;;;;;;6272927;22;19903;-89
2022/12/02 09:37:43;;;;;;;;;;;1.90;99.90;;;;;;6273022;22;19935;-86
2022/12/02 09:40:09;;;;;;;;;;;2.00;99.90;;;;;;6273887;22;19903;-88
2022/12/02 09:42:34;;;;;;;;;;;2.10;99.90;;;;;;6272589;22;19950;-89
2022/12/02 09:45:00;;;;;;;;;;;4.60;99.90;;;;;;6273122;22;20226;-88
2022/12/02 09:47:27;;;;;;;;;;;2.20;99.90;;;;;;6273065;22;19903;-89
2022/12/02 09:49:53;;;;;;;;;;;2.20;99.90;;;;;;6272932;22;19947;-90
2022/12/02 09:52:20;;;;;;;;;;;2.20;99.90;;;;;;6272857;22;19911;-90
2022/12/02 09:54:45;;;;;;;;;;;3.40;99.90;;;;;;6272749;22;20247;-90
2022/12/02 09:57:15;;;;;;;;;;;3.30;99.90;;;;;;6273900;22;19911;-86
2022/12/02 09:59:41;;;;;;;;;;;2.50;99.90;;;;;;6273910;22;19907;-87
2022/12/02 10:02:19;;;;;;;;;;;2.40;99.90;;;;;;6273930;22;19903;-87
2022/12/02 10:04:44;;;;;;;;;;;2.50;99.90;;;;;;6272736;22;19978;-86
2022/12/02 10:07:10;;;;;;;;;;;2.50;99.90;;;;;;6273839;22;19942;-87
2022/12/02 10:09:35;;;;;;;;;;;2.60;99.90;;;;;;6272424;22;19972;-85
2022/12/02 10:12:01;;;;;;;;;;;2.40;99.90;;;;;;6272804;22;19918;-89
2022/12/02 10:14:26;;;;;;;;;;;2.70;99.90;;;;;;6272668;22;19973;-90
2022/12/02 10:16:52;;;;;;;;;;;2.70;99.90;;;;;;6272660;22;19985;-90
2022/12/02 10:19:18;;;;;;;;;;;2.80;99.90;;;;;;6245346;22;19911;-89
2022/12/02 10:21:44;;;;;;;;;;;2.90;99.90;;;;;;6272516;22;19907;-87
2022/12/02 10:24:12;;;;;;;;;;;3.00;99.90;;;;;;6273409;22;19942;-88
2022/12/02 10:26:45;;;;;;;;;;;3.00;99.90;;;;;;6272962;22;20231;-88
2022/12/02 10:29:14;;;;;;;;;;;3.10;99.90;;;;;;6273805;22;19904;-87
2022/12/02 10:31:51;;;;;;;;;;;3.10;99.90;;;;;;6273470;22;19911;-89
2022/12/02 10:34:18;;;;;;;;;;;3.20;99.90;;;;;;6272380;22;20323;-86
2022/12/02 10:36:44;;;;;;;;;;;3.30;99.90;;;;;;6272111;22;19911;-86
2022/12/02 10:39:29;;;;;;;;;;;3.30;99.90;;;;;;6273682;22;20281;-88
2022/12/02 10:42:03;;;;;;;;;;;3.40;99.90;;;;;;6245200;22;20255;-88
2022/12/02 10:44:35;;;;;;;;;;;3.40;99.90;;;;;;6272158;22;19957;-89
2022/12/02 10:47:14;;;;;;;;;;;3.40;99.90;;;;;;6272099;22;19903;-85
2022/12/02 10:49:54;;;;;;;;;;;3.40;99.90;;;;;;6273550;22;19903;-88
2022/12/02 10:52:27;;;;;;;;;;;3.50;99.90;;;;;;6272189;22;19911;-89
2022/12/02 10:54:53;;;;;;;;;;;3.50;99.90;;;;;;6272176;22;19974;-91
2022/12/02 10:57:23;;;;;;;;;;;3.40;99.90;;;;;;6272074;22;19904;-87
2022/12/02 10:59:50;;;;;;;;;;;3.40;99.90;;;;;;6271935;22;19903;-86
2022/12/02 11:02:17;;;;;;;;;;;4.30;99.90;;;;;;6272079;22;19903;-85
2022/12/02 11:04:43;;;;;;;;;;;3.50;99.90;;;;;;6246202;22;20335;-85
2022/12/02 11:07:12;;;;;;;;;;;3.60;99.90;;;;;;6271986;22;19912;-86
2022/12/02 11:09:39;;;;;;;;;;;3.60;99.90;;;;;;6271729;22;19904;-87
2022/12/02 11:12:23;;;;;;;;;;;3.70;99.90;;;;;;6244581;22;20001;-87
2022/12/02 11:14:49;;;;;;;;;;;3.70;99.90;;;;;;6272069;22;20244;-87
2022/12/02 11:17:15;;;;;;;;;;;3.80;99.90;;;;;;6272963;22;19914;-87
2022/12/02 11:19:45;;;;;;;;;;;3.90;99.90;;;;;;6245926;22;19935;-88
2022/12/02 11:22:29;;;;;;;;;;;3.90;99.90;;;;;;6272370;22;19910;-86
2022/12/02 11:24:54;;;;;;;;;;;4.00;99.90;;;;;;6271971;22;19908;-85
2022/12/02 11:27:20;;;;;;;;;;;4.00;99.90;;;;;;6271962;22;19935;-88
2022/12/02 11:30:05;;;;;;;;;;;4.10;99.90;;;;;;6272684;22;19943;-85
2022/12/02 11:32:37;;;;;;;;;;;4.30;99.90;;;;;;6271735;22;19912;-90
2022/12/02 11:35:03;;;;;;;;;;;4.40;99.90;;;;;;6271738;22;20221;-90
2022/12/02 11:37:29;;;;;;;;;;;4.40;99.90;;;;;;6244836;22;19910;-86
2022/12/02 11:39:56;;;;;;;;;;;4.40;99.90;;;;;;6245017;22;19907;-88
2022/12/02 11:42:21;;;;;;;;;;;4.40;99.90;;;;;;6271515;22;19903;-91
2022/12/02 11:44:47;;;;;;;;;;;4.60;99.90;;;;;;6244950;22;19910;-86
2022/12/02 11:47:28;;;;;;;;;;;4.60;99.90;;;;;;6272910;22;19911;-89
2022/12/02 11:49:55;;;;;;;;;;;4.70;99.90;;;;;;6244659;22;19978;-85
2022/12/02 11:52:21;;;;;;;;;;;4.80;99.90;;;;;;6271810;22;19911;-86
2022/12/02 11:55:07;;;;;;;;;;;6.90;99.90;;;;;;6272018;22;19978;-86
2022/12/02 11:57:45;;;;;;;;;;;4.80;99.90;;;;;;6245257;22;19903;-89
2022/12/02 12:00:23;;;;;;;;;;;4.90;99.90;;;;;;6271609;22;19982;-88
2022/12/02 12:03:07;;;;;;;;;;;5.00;99.90;;;;;;6244763;22;19954;-87
2022/12/02 12:05:33;;;;;;;;;;;4.80;99.90;;;;;;6244803;22;19903;-86
2022/12/02 12:07:58;;;;;;;;;;;5.20;99.90;;;;;;6244387;22;20336;-89
2022/12/02 12:10:28;;;;;;;;;;;5.90;99.90;;;;;;6271541;22;20315;-85
2022/12/02 12:13:12;;;;;;;;;;;4.90;99.90;;;;;;6244808;22;19911;-88
2022/12/02 12:15:51;;;;;;;;;;;5.00;99.90;;;;;;6272157;22;20327;-88
2022/12/02 12:18:36;;;;;;;;;;;4.90;99.90;;;;;;6272984;22;19903;-89
2022/12/02 12:21:02;;;;;;;;;;;5.00;99.90;;;;;;6244577;22;20351;-92
2022/12/02 12:23:29;;;;;;;;;;;5.00;99.90;;;;;;6244785;22;19904;-88
2022/12/02 12:25:54;;;;;;;;;;;5.10;99.90;;;;;;6271855;22;19929;-88
2022/12/02 12:28:27;;;;;;;;;;;5.10;99.90;;;;;;6271628;22;19935;-93
2022/12/02 12:30:52;;;;;;;;;;;5.00;99.90;;;;;;6271546;22;19998;-86
2022/12/02 12:33:18;;;;;;;;;;;5.10;99.90;;;;;;6272633;22;19938;-89
2022/12/02 12:35:43;;;;;;;;;;;5.20;99.90;;;;;;6271823;22;19903;-91
2022/12/02 12:38:09;;;;;;;;;;;5.10;99.90;;;;;;6272153;22;20170;-89
2022/12/02 12:40:34;;;;;;;;;;;5.10;99.90;;;;;;6273057;22;20387;-89
2022/12/02 12:43:00;;;;;;;;;;;5.30;99.90;;;;;;6273714;22;19914;-90
2022/12/02 12:45:25;;;;;;;;;;;5.20;99.90;;;;;;6273543;22;19930;-90
2022/12/02 12:47:51;;;;;;;;;;;5.20;99.90;;;;;;6273380;22;19930;-90
2022/12/02 12:50:16;;;;;;;;;;;6.00;99.90;;;;;;6274106;22;19973;-91
2022/12/02 12:52:42;;;;;;;;;;;5.20;99.90;;;;;;6273357;22;20399;-91
2022/12/02 12:55:07;;;;;;;;;;;5.20;99.90;;;;;;6246250;22;19907;-90
2022/12/02 12:57:33;;;;;;;;;;;5.20;99.90;;;;;;6246409;22;19910;-88
2022/12/02 12:59:58;;;;;;;;;;;5.20;99.90;;;;;;6273348;22;20229;-91
2022/12/02 13:02:24;;;;;;;;;;;5.50;99.90;;;;;;6273108;22;20302;-89
2022/12/02 13:04:50;;;;;;;;;;;5.20;99.90;;;;;;6274188;22;19903;-88
2022/12/02 13:07:16;;;;;;;;;;;7.00;99.90;;;;;;6273970;22;19911;-89
2022/12/02 13:09:42;;;;;;;;;;;5.30;99.90;;;;;;6273140;22;19930;-92
2022/12/02 13:12:07;;;;;;;;;;;6.90;99.90;;;;;;6273167;22;20290;-91
2022/12/02 13:14:32;;;;;;;;;;;5.40;99.90;;;;;;6273235;22;19904;-90
2022/12/02 13:16:58;;;;;;;;;;;5.70;99.90;;;;;;6273149;22;19910;-90
2022/12/02 13:19:24;;;;;;;;;;;6.20;99.90;;;;;;6272960;22;20236;-89
2022/12/02 13:21:49;;;;;;;;;;;5.30;99.90;;;;;;6274440;22;19903;-91
2022/12/02 13:24:15;;;;;;;;;;;5.40;99.90;;;;;;6273056;22;19957;-87
2022/12/02 13:26:40;;;;;;;;;;;5.40;99.90;;;;;;6273146;22;20376;-88
2022/12/02 13:29:06;;;;;;;;;;;5.30;99.90;;;;;;6272769;22;19904;-89
2022/12/02 13:31:31;;;;;;;;;;;5.40;99.90;;;;;;6272781;22;19915;-85
2022/12/02 13:33:57;;;;;;;;;;;7.30;99.90;;;;;;6272828;22;19904;-91
2022/12/02 13:36:22;;;;;;;;;;;6.20;99.90;;;;;;6246631;22;20331;-87
2022/12/02 13:38:48;;;;;;;;;;;4.30;99.90;;;;;;6273991;22;19903;-89
2022/12/02 13:41:13;;;;;;;;;;;5.30;99.90;;;;;;6246057;22;19903;-90
2022/12/02 13:43:39;;;;;;;;;;;5.30;99.90;;;;;;6245722;22;20278;-88
2022/12/02 13:46:04;;;;;;;;;;;6.00;99.90;;;;;;6272653;22;19907;-90
2022/12/02 13:48:30;;;;;;;;;;;5.30;99.90;;;;;;6272762;22;19927;-91
2022/12/02 13:50:56;;;;;;;;;;;5.30;99.90;;;;;;6272671;22;19911;-89
2022/12/02 13:53:21;;;;;;;;;;;5.30;99.90;;;;;;6273786;22;19931;-89
2022/12/02 13:55:47;;;;;;;;;;;5.30;99.90;;;;;;6272809;22;19961;-88
2022/12/02 13:58:12;;;;;;;;;;;5.50;99.90;;;;;;6272685;22;19903;-90
2022/12/02 14:00:38;;;;;;;;;;;5.70;99.90;;;;;;6272575;22;19903;-88
2022/12/02 14:03:03;;;;;;;;;;;7.00;99.90;;;;;;6245473;22;20261;-91
2022/12/02 14:05:29;;;;;;;;;;;5.30;99.90;;;;;;6272783;22;19934;-90
2022/12/02 14:07:54;;;;;;;;;;;5.30;99.90;;;;;;6272555;22;19915;-86
2022/12/02 14:10:20;;;;;;;;;;;5.30;99.90;;;;;;6273612;22;19904;-90
2022/12/02 14:12:45;;;;;;;;;;;5.30;99.90;;;;;;6273337;22;19903;-90
2022/12/02 14:15:11;;;;;;;;;;;6.20;99.90;;;;;;6272386;22;19910;-91
2022/12/02 14:17:37;;;;;;;;;;;5.40;99.90;;;;;;6272328;22;19903;-89
2022/12/02 14:20:02;;;;;;;;;;;5.40;99.90;;;;;;6272668;22;19903;-88
2022/12/02 14:22:28;;;;;;;;;;;5.50;99.90;;;;;;6272598;22;19904;-89
2022/12/02 14:24:54;;;;;;;;;;;5.90;99.90;;;;;;6246470;22;20266;-91
2022/12/02 14:27:19;;;;;;;;;;;5.40;99.90;;;;;;6272410;22;20245;-89
2022/12/02 14:29:45;;;;;;;;;;;5.40;99.90;;;;;;6245008;22;20209;-88
2022/12/02 14:32:10;;;;;;;;;;;5.40;99.90;;;;;;6245082;22;20221;-88
2022/12/02 14:34:36;;;;;;;;;;;5.40;99.90;;;;;;6272595;22;19986;-90
2022/12/02 14:37:01;;;;;;;;;;;5.50;99.90;;;;;;6272541;22;19910;-89